sensor_id;sensor_type;location;lat;lon;timestamp;P1;durP1;ratioP1;P2;durP2;ratioP2
32214;SDS011;18708;53.124;23.190;2023-03-04T00:00:57;53.72;;;27.10;;
32214;SDS011;18708;53.124;23.190;2023-03-04T00:03:23;52.50;;;24.88;;
32214;SDS011;18708;53.124;23.190;2023-03-04T00:05:49;49.88;;;23.60;;
32214;SDS011;18708;53.124;23.190;2023-03-04T00:08:14;49.90;;;25.02;;
32214;SDS011;18708;53.124;23.190;2023-03-04T00:10:40;45.95;;;23.25;;
32214;SDS011;18708;53.124;23.190;2023-03-04T00:13:06;49.47;;;23.52;;
32214;SDS011;18708;53.124;23.190;2023-03-04T00:15:31;49.58;;;23.58;;
32214;SDS011;18708;53.124;23.190;2023-03-04T00:17:57;52.25;;;24.63;;
32214;SDS011;18708;53.124;23.190;2023-03-04T00:20:23;48.17;;;24.10;;
32214;SDS011;18708;53.124;23.190;2023-03-04T00:22:48;45.60;;;22.40;;
32214;SDS011;18708;53.124;23.190;2023-03-04T00:25:14;46.85;;;23.48;;
32214;SDS011;18708;53.124;23.190;2023-03-04T00:27:40;44.47;;;20.80;;
32214;SDS011;18708;53.124;23.190;2023-03-04T00:30:06;48.85;;;27.00;;
32214;SDS011;18708;53.124;23.190;2023-03-04T00:32:32;48.00;;;23.50;;
32214;SDS011;18708;53.124;23.190;2023-03-04T00:34:58;57.70;;;24.83;;
32214;SDS011;18708;53.124;23.190;2023-03-04T00:37:24;46.05;;;24.13;;
32214;SDS011;18708;53.124;23.190;2023-03-04T00:39:49;42.75;;;21.05;;
32214;SDS011;18708;53.124;23.190;2023-03-04T00:42:15;47.63;;;24.70;;
32214;SDS011;18708;53.124;23.190;2023-03-04T00:44:41;39.97;;;21.33;;
32214;SDS011;18708;53.124;23.190;2023-03-04T00:47:06;40.97;;;20.90;;
32214;SDS011;18708;53.124;23.190;2023-03-04T00:49:32;43.40;;;22.08;;
32214;SDS011;18708;53.124;23.190;2023-03-04T00:51:58;43.53;;;20.50;;
32214;SDS011;18708;53.124;23.190;2023-03-04T00:54:23;45.40;;;22.55;;
32214;SDS011;18708;53.124;23.190;2023-03-04T00:56:49;41.00;;;20.88;;
32214;SDS011;18708;53.124;23.190;2023-03-04T00:59:15;30.88;;;14.63;;
32214;SDS011;18708;53.124;23.190;2023-03-04T01:01:40;45.13;;;21.88;;
32214;SDS011;18708;53.124;23.190;2023-03-04T01:04:06;41.33;;;20.60;;
32214;SDS011;18708;53.124;23.190;2023-03-04T01:06:32;47.88;;;22.35;;
32214;SDS011;18708;53.124;23.190;2023-03-04T01:08:58;49.22;;;23.52;;
32214;SDS011;18708;53.124;23.190;2023-03-04T01:11:23;42.92;;;20.98;;
32214;SDS011;18708;53.124;23.190;2023-03-04T01:13:49;38.45;;;19.40;;
32214;SDS011;18708;53.124;23.190;2023-03-04T01:16:14;41.70;;;20.95;;
32214;SDS011;18708;53.124;23.190;2023-03-04T01:18:40;43.65;;;20.17;;
32214;SDS011;18708;53.124;23.190;2023-03-04T01:21:06;39.47;;;19.05;;
32214;SDS011;18708;53.124;23.190;2023-03-04T01:23:31;36.67;;;18.60;;
32214;SDS011;18708;53.124;23.190;2023-03-04T01:25:57;41.97;;;19.90;;
32214;SDS011;18708;53.124;23.190;2023-03-04T01:28:23;36.80;;;19.13;;
32214;SDS011;18708;53.124;23.190;2023-03-04T01:30:48;35.10;;;18.52;;
32214;SDS011;18708;53.124;23.190;2023-03-04T01:33:14;34.35;;;18.60;;
32214;SDS011;18708;53.124;23.190;2023-03-04T01:35:40;36.95;;;18.73;;
32214;SDS011;18708;53.124;23.190;2023-03-04T01:38:05;40.28;;;19.80;;
32214;SDS011;18708;53.124;23.190;2023-03-04T01:40:31;32.70;;;17.95;;
32214;SDS011;18708;53.124;23.190;2023-03-04T01:42:57;36.08;;;17.92;;
32214;SDS011;18708;53.124;23.190;2023-03-04T01:45:23;34.33;;;17.35;;
32214;SDS011;18708;53.124;23.190;2023-03-04T01:47:49;35.05;;;18.10;;
32214;SDS011;18708;53.124;23.190;2023-03-04T01:50:36;39.08;;;19.65;;
32214;SDS011;18708;53.124;23.190;2023-03-04T01:53:01;33.08;;;16.75;;
32214;SDS011;18708;53.124;23.190;2023-03-04T01:55:28;35.90;;;17.58;;
32214;SDS011;18708;53.124;23.190;2023-03-04T01:57:55;36.33;;;18.90;;
32214;SDS011;18708;53.124;23.190;2023-03-04T02:02:56;32.75;;;16.80;;
32214;SDS011;18708;53.124;23.190;2023-03-04T02:05:27;35.65;;;17.38;;
32214;SDS011;18708;53.124;23.190;2023-03-04T02:07:54;28.65;;;13.60;;
32214;SDS011;18708;53.124;23.190;2023-03-04T02:10:21;33.38;;;19.40;;
32214;SDS011;18708;53.124;23.190;2023-03-04T02:12:47;38.75;;;19.83;;
32214;SDS011;18708;53.124;23.190;2023-03-04T02:15:14;32.33;;;16.17;;
32214;SDS011;18708;53.124;23.190;2023-03-04T02:17:39;34.53;;;16.80;;
32214;SDS011;18708;53.124;23.190;2023-03-04T02:20:14;33.70;;;16.52;;
32214;SDS011;18708;53.124;23.190;2023-03-04T02:22:53;40.38;;;19.27;;
32214;SDS011;18708;53.124;23.190;2023-03-04T02:25:32;32.30;;;15.52;;
32214;SDS011;18708;53.124;23.190;2023-03-04T02:28:03;38.42;;;17.25;;
32214;SDS011;18708;53.124;23.190;2023-03-04T02:30:29;34.45;;;16.15;;
32214;SDS011;18708;53.124;23.190;2023-03-04T02:32:55;39.25;;;18.83;;
32214;SDS011;18708;53.124;23.190;2023-03-04T02:35:23;35.10;;;16.38;;
32214;SDS011;18708;53.124;23.190;2023-03-04T02:37:48;34.67;;;17.20;;
32214;SDS011;18708;53.124;23.190;2023-03-04T02:40:15;36.08;;;17.10;;
32214;SDS011;18708;53.124;23.190;2023-03-04T02:42:50;39.70;;;18.80;;
32214;SDS011;18708;53.124;23.190;2023-03-04T02:45:36;37.67;;;16.85;;
32214;SDS011;18708;53.124;23.190;2023-03-04T02:48:20;35.50;;;16.38;;
32214;SDS011;18708;53.124;23.190;2023-03-04T02:50:49;39.80;;;18.42;;
32214;SDS011;18708;53.124;23.190;2023-03-04T02:53:16;39.47;;;17.73;;
32214;SDS011;18708;53.124;23.190;2023-03-04T02:55:42;40.38;;;19.65;;
32214;SDS011;18708;53.124;23.190;2023-03-04T02:58:09;43.40;;;19.38;;
32214;SDS011;18708;53.124;23.190;2023-03-04T03:00:35;38.13;;;17.92;;
32214;SDS011;18708;53.124;23.190;2023-03-04T03:03:01;39.83;;;20.17;;
32214;SDS011;18708;53.124;23.190;2023-03-04T03:05:28;43.63;;;20.50;;
32214;SDS011;18708;53.124;23.190;2023-03-04T03:07:56;39.10;;;18.20;;
32214;SDS011;18708;53.124;23.190;2023-03-04T03:10:22;35.58;;;17.77;;
32214;SDS011;18708;53.124;23.190;2023-03-04T03:12:47;34.90;;;18.23;;
32214;SDS011;18708;53.124;23.190;2023-03-04T03:15:13;34.72;;;17.63;;
32214;SDS011;18708;53.124;23.190;2023-03-04T03:17:39;39.03;;;19.73;;
32214;SDS011;18708;53.124;23.190;2023-03-04T03:20:05;37.60;;;18.10;;
32214;SDS011;18708;53.124;23.190;2023-03-04T03:22:31;36.20;;;17.70;;
32214;SDS011;18708;53.124;23.190;2023-03-04T03:24:57;36.22;;;18.80;;
32214;SDS011;18708;53.124;23.190;2023-03-04T03:27:23;39.50;;;21.10;;
32214;SDS011;18708;53.124;23.190;2023-03-04T03:29:48;40.53;;;20.25;;
32214;SDS011;18708;53.124;23.190;2023-03-04T03:32:14;35.60;;;19.42;;
32214;SDS011;18708;53.124;23.190;2023-03-04T03:34:40;32.13;;;16.80;;
32214;SDS011;18708;53.124;23.190;2023-03-04T03:37:06;33.28;;;17.90;;
32214;SDS011;18708;53.124;23.190;2023-03-04T03:39:31;34.97;;;16.90;;
32214;SDS011;18708;53.124;23.190;2023-03-04T03:41:57;32.58;;;16.83;;
32214;SDS011;18708;53.124;23.190;2023-03-04T03:44:23;32.72;;;16.38;;
32214;SDS011;18708;53.124;23.190;2023-03-04T03:46:48;37.60;;;17.95;;
32214;SDS011;18708;53.124;23.190;2023-03-04T03:49:14;29.23;;;15.60;;
32214;SDS011;18708;53.124;23.190;2023-03-04T03:51:41;33.38;;;16.83;;
32214;SDS011;18708;53.124;23.190;2023-03-04T03:54:07;31.30;;;17.77;;
32214;SDS011;18708;53.124;23.190;2023-03-04T03:56:33;33.63;;;18.48;;
32214;SDS011;18708;53.124;23.190;2023-03-04T03:58:59;32.45;;;17.17;;
32214;SDS011;18708;53.124;23.190;2023-03-04T04:01:25;35.40;;;17.98;;
32214;SDS011;18708;53.124;23.190;2023-03-04T04:03:50;33.53;;;17.60;;
32214;SDS011;18708;53.124;23.190;2023-03-04T04:06:16;31.65;;;18.52;;
32214;SDS011;18708;53.124;23.190;2023-03-04T04:08:42;31.33;;;16.73;;
32214;SDS011;18708;53.124;23.190;2023-03-04T04:11:11;32.90;;;17.23;;
32214;SDS011;18708;53.124;23.190;2023-03-04T04:13:37;30.33;;;17.13;;
32214;SDS011;18708;53.124;23.190;2023-03-04T04:16:03;28.88;;;17.13;;
32214;SDS011;18708;53.124;23.190;2023-03-04T04:18:29;30.48;;;16.90;;
32214;SDS011;18708;53.124;23.190;2023-03-04T04:20:55;32.92;;;17.38;;
32214;SDS011;18708;53.124;23.190;2023-03-04T04:23:21;32.08;;;16.88;;
32214;SDS011;18708;53.124;23.190;2023-03-04T04:25:47;29.65;;;16.70;;
32214;SDS011;18708;53.124;23.190;2023-03-04T04:28:12;33.25;;;19.23;;
32214;SDS011;18708;53.124;23.190;2023-03-04T04:30:38;31.40;;;16.80;;
32214;SDS011;18708;53.124;23.190;2023-03-04T04:33:04;31.80;;;18.50;;
32214;SDS011;18708;53.124;23.190;2023-03-04T04:35:31;31.92;;;16.85;;
32214;SDS011;18708;53.124;23.190;2023-03-04T04:37:59;34.53;;;18.85;;
32214;SDS011;18708;53.124;23.190;2023-03-04T04:40:24;30.05;;;16.60;;
32214;SDS011;18708;53.124;23.190;2023-03-04T04:42:50;36.10;;;18.98;;
32214;SDS011;18708;53.124;23.190;2023-03-04T04:45:16;37.20;;;19.95;;
32214;SDS011;18708;53.124;23.190;2023-03-04T04:47:42;33.55;;;17.55;;
32214;SDS011;18708;53.124;23.190;2023-03-04T04:50:08;42.95;;;20.58;;
32214;SDS011;18708;53.124;23.190;2023-03-04T04:52:34;33.10;;;18.63;;
32214;SDS011;18708;53.124;23.190;2023-03-04T04:55:00;36.67;;;18.88;;
32214;SDS011;18708;53.124;23.190;2023-03-04T04:57:26;32.75;;;17.08;;
32214;SDS011;18708;53.124;23.190;2023-03-04T04:59:52;35.10;;;18.30;;
32214;SDS011;18708;53.124;23.190;2023-03-04T05:02:18;39.28;;;19.15;;
32214;SDS011;18708;53.124;23.190;2023-03-04T05:04:44;31.55;;;18.77;;
32214;SDS011;18708;53.124;23.190;2023-03-04T05:07:10;30.60;;;17.98;;
32214;SDS011;18708;53.124;23.190;2023-03-04T05:09:35;32.35;;;19.05;;
32214;SDS011;18708;53.124;23.190;2023-03-04T05:12:01;36.15;;;19.98;;
32214;SDS011;18708;53.124;23.190;2023-03-04T05:14:27;32.75;;;18.27;;
32214;SDS011;18708;53.124;23.190;2023-03-04T05:16:53;32.17;;;20.60;;
32214;SDS011;18708;53.124;23.190;2023-03-04T05:19:19;36.40;;;19.80;;
32214;SDS011;18708;53.124;23.190;2023-03-04T05:21:45;33.33;;;18.08;;
32214;SDS011;18708;53.124;23.190;2023-03-04T05:24:10;36.50;;;19.65;;
32214;SDS011;18708;53.124;23.190;2023-03-04T05:26:36;35.47;;;20.30;;
32214;SDS011;18708;53.124;23.190;2023-03-04T05:29:02;32.20;;;19.02;;
32214;SDS011;18708;53.124;23.190;2023-03-04T05:31:28;34.20;;;22.85;;
32214;SDS011;18708;53.124;23.190;2023-03-04T05:33:54;33.92;;;19.35;;
32214;SDS011;18708;53.124;23.190;2023-03-04T05:36:20;29.70;;;17.58;;
32214;SDS011;18708;53.124;23.190;2023-03-04T05:38:46;39.53;;;18.77;;
32214;SDS011;18708;53.124;23.190;2023-03-04T05:41:12;34.30;;;21.23;;
32214;SDS011;18708;53.124;23.190;2023-03-04T05:43:38;38.13;;;20.40;;
32214;SDS011;18708;53.124;23.190;2023-03-04T05:46:07;34.33;;;17.65;;
32214;SDS011;18708;53.124;23.190;2023-03-04T05:48:33;43.85;;;22.00;;
32214;SDS011;18708;53.124;23.190;2023-03-04T05:51:00;53.38;;;28.67;;
32214;SDS011;18708;53.124;23.190;2023-03-04T05:53:26;37.53;;;19.83;;
32214;SDS011;18708;53.124;23.190;2023-03-04T05:55:52;49.05;;;26.88;;
32214;SDS011;18708;53.124;23.190;2023-03-04T05:58:19;43.97;;;25.45;;
32214;SDS011;18708;53.124;23.190;2023-03-04T06:00:45;36.90;;;21.25;;
32214;SDS011;18708;53.124;23.190;2023-03-04T06:03:18;31.95;;;18.30;;
32214;SDS011;18708;53.124;23.190;2023-03-04T06:05:46;37.85;;;21.40;;
32214;SDS011;18708;53.124;23.190;2023-03-04T06:08:12;31.60;;;17.45;;
32214;SDS011;18708;53.124;23.190;2023-03-04T06:10:39;32.30;;;17.80;;
32214;SDS011;18708;53.124;23.190;2023-03-04T06:13:05;29.63;;;17.02;;
32214;SDS011;18708;53.124;23.190;2023-03-04T06:15:32;31.15;;;21.27;;
32214;SDS011;18708;53.124;23.190;2023-03-04T06:17:58;29.48;;;18.13;;
32214;SDS011;18708;53.124;23.190;2023-03-04T06:20:23;29.08;;;17.10;;
32214;SDS011;18708;53.124;23.190;2023-03-04T06:22:49;29.27;;;17.67;;
32214;SDS011;18708;53.124;23.190;2023-03-04T06:25:15;29.88;;;17.92;;
32214;SDS011;18708;53.124;23.190;2023-03-04T06:27:40;33.20;;;17.48;;
32214;SDS011;18708;53.124;23.190;2023-03-04T06:30:06;27.63;;;17.85;;
32214;SDS011;18708;53.124;23.190;2023-03-04T06:32:34;32.22;;;16.98;;
32214;SDS011;18708;53.124;23.190;2023-03-04T06:35:00;32.78;;;16.73;;
32214;SDS011;18708;53.124;23.190;2023-03-04T06:37:25;29.83;;;17.73;;
32214;SDS011;18708;53.124;23.190;2023-03-04T06:39:51;35.47;;;21.45;;
32214;SDS011;18708;53.124;23.190;2023-03-04T06:42:16;37.30;;;20.23;;
32214;SDS011;18708;53.124;23.190;2023-03-04T06:44:43;30.08;;;17.75;;
32214;SDS011;18708;53.124;23.190;2023-03-04T06:47:09;27.10;;;14.85;;
32214;SDS011;18708;53.124;23.190;2023-03-04T06:49:34;25.10;;;15.70;;
32214;SDS011;18708;53.124;23.190;2023-03-04T06:52:00;29.30;;;15.88;;
32214;SDS011;18708;53.124;23.190;2023-03-04T06:54:26;26.65;;;15.45;;
32214;SDS011;18708;53.124;23.190;2023-03-04T06:56:52;26.45;;;16.10;;
32214;SDS011;18708;53.124;23.190;2023-03-04T06:59:17;24.02;;;16.00;;
32214;SDS011;18708;53.124;23.190;2023-03-04T07:01:43;29.33;;;15.95;;
32214;SDS011;18708;53.124;23.190;2023-03-04T07:04:09;37.42;;;20.08;;
32214;SDS011;18708;53.124;23.190;2023-03-04T07:06:37;27.25;;;15.25;;
32214;SDS011;18708;53.124;23.190;2023-03-04T07:09:03;25.33;;;14.30;;
32214;SDS011;18708;53.124;23.190;2023-03-04T07:11:28;28.05;;;16.95;;
32214;SDS011;18708;53.124;23.190;2023-03-04T07:13:54;26.33;;;13.77;;
32214;SDS011;18708;53.124;23.190;2023-03-04T07:16:21;24.55;;;13.25;;
32214;SDS011;18708;53.124;23.190;2023-03-04T07:18:47;26.27;;;14.80;;
32214;SDS011;18708;53.124;23.190;2023-03-04T07:21:13;24.75;;;13.68;;
32214;SDS011;18708;53.124;23.190;2023-03-04T07:23:41;27.60;;;13.95;;
32214;SDS011;18708;53.124;23.190;2023-03-04T07:26:06;25.50;;;13.63;;
32214;SDS011;18708;53.124;23.190;2023-03-04T07:28:32;20.17;;;12.45;;
32214;SDS011;18708;53.124;23.190;2023-03-04T07:31:19;22.65;;;13.43;;
32214;SDS011;18708;53.124;23.190;2023-03-04T07:34:00;24.35;;;15.60;;
32214;SDS011;18708;53.124;23.190;2023-03-04T07:36:28;38.67;;;21.63;;
32214;SDS011;18708;53.124;23.190;2023-03-04T07:38:54;25.35;;;16.17;;
32214;SDS011;18708;53.124;23.190;2023-03-04T07:41:20;20.85;;;13.35;;
32214;SDS011;18708;53.124;23.190;2023-03-04T07:43:48;27.63;;;15.38;;
32214;SDS011;18708;53.124;23.190;2023-03-04T07:46:13;26.85;;;14.32;;
32214;SDS011;18708;53.124;23.190;2023-03-04T07:48:39;19.10;;;11.73;;
32214;SDS011;18708;53.124;23.190;2023-03-04T07:51:06;22.38;;;13.85;;
32214;SDS011;18708;53.124;23.190;2023-03-04T07:53:37;24.98;;;13.90;;
32214;SDS011;18708;53.124;23.190;2023-03-04T07:56:04;20.55;;;10.88;;
32214;SDS011;18708;53.124;23.190;2023-03-04T07:58:31;27.88;;;14.77;;
32214;SDS011;18708;53.124;23.190;2023-03-04T08:00:57;29.08;;;16.50;;
32214;SDS011;18708;53.124;23.190;2023-03-04T08:03:23;27.52;;;13.88;;
32214;SDS011;18708;53.124;23.190;2023-03-04T08:05:49;29.42;;;15.90;;
32214;SDS011;18708;53.124;23.190;2023-03-04T08:08:15;23.10;;;12.60;;
32214;SDS011;18708;53.124;23.190;2023-03-04T08:10:41;23.23;;;12.10;;
32214;SDS011;18708;53.124;23.190;2023-03-04T08:13:07;24.52;;;13.88;;
32214;SDS011;18708;53.124;23.190;2023-03-04T08:15:33;30.25;;;14.30;;
32214;SDS011;18708;53.124;23.190;2023-03-04T08:18:03;22.45;;;12.43;;
32214;SDS011;18708;53.124;23.190;2023-03-04T08:20:28;21.67;;;11.68;;
32214;SDS011;18708;53.124;23.190;2023-03-04T08:22:54;18.30;;;12.63;;
32214;SDS011;18708;53.124;23.190;2023-03-04T08:25:20;17.95;;;10.55;;
32214;SDS011;18708;53.124;23.190;2023-03-04T08:27:45;20.38;;;10.05;;
32214;SDS011;18708;53.124;23.190;2023-03-04T08:30:11;19.92;;;12.90;;
32214;SDS011;18708;53.124;23.190;2023-03-04T08:32:37;19.05;;;10.65;;
32214;SDS011;18708;53.124;23.190;2023-03-04T08:35:03;19.58;;;10.93;;
32214;SDS011;18708;53.124;23.190;2023-03-04T08:37:29;23.73;;;12.82;;
32214;SDS011;18708;53.124;23.190;2023-03-04T08:39:55;24.52;;;11.55;;
32214;SDS011;18708;53.124;23.190;2023-03-04T08:42:21;24.38;;;11.20;;
32214;SDS011;18708;53.124;23.190;2023-03-04T08:44:48;24.90;;;13.75;;
32214;SDS011;18708;53.124;23.190;2023-03-04T08:47:14;27.77;;;15.68;;
32214;SDS011;18708;53.124;23.190;2023-03-04T08:49:39;22.80;;;11.30;;
32214;SDS011;18708;53.124;23.190;2023-03-04T08:52:05;29.73;;;14.02;;
32214;SDS011;18708;53.124;23.190;2023-03-04T08:54:31;29.50;;;14.88;;
32214;SDS011;18708;53.124;23.190;2023-03-04T08:56:56;22.50;;;11.93;;
32214;SDS011;18708;53.124;23.190;2023-03-04T08:59:22;20.75;;;11.27;;
32214;SDS011;18708;53.124;23.190;2023-03-04T09:01:48;23.40;;;13.93;;
32214;SDS011;18708;53.124;23.190;2023-03-04T09:04:14;18.23;;;10.10;;
32214;SDS011;18708;53.124;23.190;2023-03-04T09:06:39;23.48;;;11.98;;
32214;SDS011;18708;53.124;23.190;2023-03-04T09:09:05;19.92;;;10.32;;
32214;SDS011;18708;53.124;23.190;2023-03-04T09:11:31;22.55;;;10.63;;
32214;SDS011;18708;53.124;23.190;2023-03-04T09:13:58;25.98;;;14.00;;
32214;SDS011;18708;53.124;23.190;2023-03-04T09:16:24;24.70;;;12.43;;
32214;SDS011;18708;53.124;23.190;2023-03-04T09:18:49;21.20;;;10.85;;
32214;SDS011;18708;53.124;23.190;2023-03-04T09:21:15;20.10;;;10.20;;
32214;SDS011;18708;53.124;23.190;2023-03-04T09:23:41;20.20;;;11.50;;
32214;SDS011;18708;53.124;23.190;2023-03-04T09:26:18;16.33;;;10.52;;
32214;SDS011;18708;53.124;23.190;2023-03-04T09:28:48;20.17;;;10.13;;
32214;SDS011;18708;53.124;23.190;2023-03-04T09:31:15;20.70;;;12.20;;
32214;SDS011;18708;53.124;23.190;2023-03-04T09:33:41;26.83;;;13.02;;
32214;SDS011;18708;53.124;23.190;2023-03-04T09:36:10;20.08;;;11.15;;
32214;SDS011;18708;53.124;23.190;2023-03-04T09:38:37;19.92;;;11.30;;
32214;SDS011;18708;53.124;23.190;2023-03-04T09:41:05;17.50;;;10.07;;
32214;SDS011;18708;53.124;23.190;2023-03-04T09:43:38;19.98;;;10.38;;
32214;SDS011;18708;53.124;23.190;2023-03-04T09:46:07;20.30;;;9.52;;
32214;SDS011;18708;53.124;23.190;2023-03-04T09:48:50;16.58;;;8.98;;
32214;SDS011;18708;53.124;23.190;2023-03-04T09:51:18;15.75;;;8.88;;
32214;SDS011;18708;53.124;23.190;2023-03-04T09:54:07;18.65;;;9.60;;
32214;SDS011;18708;53.124;23.190;2023-03-04T09:56:40;10.85;;;4.85;;
32214;SDS011;18708;53.124;23.190;2023-03-04T09:59:20;16.13;;;8.55;;
32214;SDS011;18708;53.124;23.190;2023-03-04T10:01:52;15.48;;;8.77;;
32214;SDS011;18708;53.124;23.190;2023-03-04T10:06:48;9.55;;;5.82;;
32214;SDS011;18708;53.124;23.190;2023-03-04T10:09:28;12.07;;;5.97;;
32214;SDS011;18708;53.124;23.190;2023-03-04T10:12:04;9.77;;;6.18;;
32214;SDS011;18708;53.124;23.190;2023-03-04T10:17:15;13.88;;;6.03;;
32214;SDS011;18708;53.124;23.190;2023-03-04T10:22:35;26.90;;;12.80;;
32214;SDS011;18708;53.124;23.190;2023-03-04T10:32:54;7.38;;;4.43;;
32214;SDS011;18708;53.124;23.190;2023-03-04T10:35:20;12.15;;;4.22;;
32214;SDS011;18708;53.124;23.190;2023-03-04T10:37:49;9.43;;;3.78;;
32214;SDS011;18708;53.124;23.190;2023-03-04T10:40:17;9.20;;;4.28;;
32214;SDS011;18708;53.124;23.190;2023-03-04T10:42:48;7.30;;;3.55;;
32214;SDS011;18708;53.124;23.190;2023-03-04T10:45:21;10.77;;;3.67;;
32214;SDS011;18708;53.124;23.190;2023-03-04T10:47:55;11.32;;;4.30;;
32214;SDS011;18708;53.124;23.190;2023-03-04T10:50:24;11.07;;;4.85;;
32214;SDS011;18708;53.124;23.190;2023-03-04T10:52:53;6.72;;;3.17;;
32214;SDS011;18708;53.124;23.190;2023-03-04T10:55:21;11.93;;;4.80;;
32214;SDS011;18708;53.124;23.190;2023-03-04T10:58:05;8.38;;;3.85;;
32214;SDS011;18708;53.124;23.190;2023-03-04T11:00:37;8.07;;;5.93;;
32214;SDS011;18708;53.124;23.190;2023-03-04T11:05:48;6.88;;;3.20;;
32214;SDS011;18708;53.124;23.190;2023-03-04T11:08:21;7.80;;;3.90;;
32214;SDS011;18708;53.124;23.190;2023-03-04T11:10:48;13.00;;;3.55;;
32214;SDS011;18708;53.124;23.190;2023-03-04T11:13:20;11.63;;;3.88;;
32214;SDS011;18708;53.124;23.190;2023-03-04T11:15:51;10.45;;;4.30;;
32214;SDS011;18708;53.124;23.190;2023-03-04T11:18:40;8.48;;;5.00;;
32214;SDS011;18708;53.124;23.190;2023-03-04T11:21:13;7.28;;;2.50;;
32214;SDS011;18708;53.124;23.190;2023-03-04T11:24:01;5.78;;;2.58;;
32214;SDS011;18708;53.124;23.190;2023-03-04T11:34:14;6.72;;;3.28;;
32214;SDS011;18708;53.124;23.190;2023-03-04T11:39:37;6.22;;;3.30;;
32214;SDS011;18708;53.124;23.190;2023-03-04T11:45:12;4.88;;;1.85;;
32214;SDS011;18708;53.124;23.190;2023-03-04T12:01:01;5.03;;;1.98;;
32214;SDS011;18708;53.124;23.190;2023-03-04T12:03:50;3.42;;;1.92;;
32214;SDS011;18708;53.124;23.190;2023-03-04T12:22:50;3.13;;;1.20;;
32214;SDS011;18708;53.124;23.190;2023-03-04T12:28:17;6.57;;;3.83;;
32214;SDS011;18708;53.124;23.190;2023-03-04T12:36:01;3.72;;;1.90;;
32214;SDS011;18708;53.124;23.190;2023-03-04T12:38:33;3.60;;;1.75;;
32214;SDS011;18708;53.124;23.190;2023-03-04T12:46:47;2.88;;;1.67;;
32214;SDS011;18708;53.124;23.190;2023-03-04T12:55:41;2.35;;;1.23;;
32214;SDS011;18708;53.124;23.190;2023-03-04T12:58:23;3.78;;;1.10;;
32214;SDS011;18708;53.124;23.190;2023-03-04T13:01:06;1.92;;;1.17;;
32214;SDS011;18708;53.124;23.190;2023-03-04T13:08:59;3.75;;;1.75;;
32214;SDS011;18708;53.124;23.190;2023-03-04T13:16:46;4.72;;;1.92;;
32214;SDS011;18708;53.124;23.190;2023-03-04T13:41:13;1.80;;;1.30;;
32214;SDS011;18708;53.124;23.190;2023-03-04T13:43:44;4.47;;;2.10;;
32214;SDS011;18708;53.124;23.190;2023-03-04T13:59:07;2.33;;;1.90;;
32214;SDS011;18708;53.124;23.190;2023-03-04T14:04:19;6.05;;;1.95;;
32214;SDS011;18708;53.124;23.190;2023-03-04T14:06:52;2.22;;;1.75;;
32214;SDS011;18708;53.124;23.190;2023-03-04T14:09:21;1.95;;;1.40;;
32214;SDS011;18708;53.124;23.190;2023-03-04T14:11:52;3.55;;;1.63;;
32214;SDS011;18708;53.124;23.190;2023-03-04T14:14:41;6.10;;;1.98;;
32214;SDS011;18708;53.124;23.190;2023-03-04T14:17:17;5.28;;;1.45;;
32214;SDS011;18708;53.124;23.190;2023-03-04T14:20:00;6.90;;;3.00;;
32214;SDS011;18708;53.124;23.190;2023-03-04T14:22:29;3.70;;;2.25;;
32214;SDS011;18708;53.124;23.190;2023-03-04T14:25:04;7.95;;;3.72;;
32214;SDS011;18708;53.124;23.190;2023-03-04T14:27:44;5.28;;;2.53;;
32214;SDS011;18708;53.124;23.190;2023-03-04T14:30:23;7.45;;;4.18;;
32214;SDS011;18708;53.124;23.190;2023-03-04T14:32:54;5.82;;;2.00;;
32214;SDS011;18708;53.124;23.190;2023-03-04T14:35:26;5.53;;;2.85;;
32214;SDS011;18708;53.124;23.190;2023-03-04T14:37:56;2.40;;;1.92;;
32214;SDS011;18708;53.124;23.190;2023-03-04T14:40:28;6.63;;;2.00;;
32214;SDS011;18708;53.124;23.190;2023-03-04T14:43:05;6.80;;;2.50;;
32214;SDS011;18708;53.124;23.190;2023-03-04T14:45:38;4.55;;;2.38;;
32214;SDS011;18708;53.124;23.190;2023-03-04T14:48:05;8.52;;;5.00;;
32214;SDS011;18708;53.124;23.190;2023-03-04T14:50:31;2.78;;;1.30;;
32214;SDS011;18708;53.124;23.190;2023-03-04T14:53:12;3.65;;;2.83;;
32214;SDS011;18708;53.124;23.190;2023-03-04T14:55:53;7.78;;;2.30;;
32214;SDS011;18708;53.124;23.190;2023-03-04T14:58:26;14.30;;;4.35;;
32214;SDS011;18708;53.124;23.190;2023-03-04T15:01:04;15.80;;;6.13;;
32214;SDS011;18708;53.124;23.190;2023-03-04T15:03:39;18.10;;;8.68;;
32214;SDS011;18708;53.124;23.190;2023-03-04T15:06:18;2.45;;;2.25;;
32214;SDS011;18708;53.124;23.190;2023-03-04T15:08:46;4.07;;;2.17;;
32214;SDS011;18708;53.124;23.190;2023-03-04T15:11:31;7.57;;;3.08;;
32214;SDS011;18708;53.124;23.190;2023-03-04T15:14:41;11.18;;;3.75;;
32214;SDS011;18708;53.124;23.190;2023-03-04T15:22:33;7.10;;;3.15;;
32214;SDS011;18708;53.124;23.190;2023-03-04T15:25:19;7.45;;;3.17;;
32214;SDS011;18708;53.124;23.190;2023-03-04T15:27:45;22.30;;;8.80;;
32214;SDS011;18708;53.124;23.190;2023-03-04T15:30:16;7.93;;;3.92;;
32214;SDS011;18708;53.124;23.190;2023-03-04T15:33:00;4.82;;;3.25;;
32214;SDS011;18708;53.124;23.190;2023-03-04T15:35:27;7.32;;;3.45;;
32214;SDS011;18708;53.124;23.190;2023-03-04T15:37:55;9.40;;;5.65;;
32214;SDS011;18708;53.124;23.190;2023-03-04T15:42:55;13.98;;;6.68;;
32214;SDS011;18708;53.124;23.190;2023-03-04T15:45:24;21.17;;;9.68;;
32214;SDS011;18708;53.124;23.190;2023-03-04T15:47:50;15.20;;;8.02;;
32214;SDS011;18708;53.124;23.190;2023-03-04T15:50:16;20.00;;;10.05;;
32214;SDS011;18708;53.124;23.190;2023-03-04T15:52:43;11.50;;;6.25;;
32214;SDS011;18708;53.124;23.190;2023-03-04T15:55:12;16.75;;;8.65;;
32214;SDS011;18708;53.124;23.190;2023-03-04T15:57:44;3.38;;;1.80;;
32214;SDS011;18708;53.124;23.190;2023-03-04T16:00:12;2.33;;;1.95;;
32214;SDS011;18708;53.124;23.190;2023-03-04T16:02:38;4.28;;;2.53;;
32214;SDS011;18708;53.124;23.190;2023-03-04T16:05:04;6.47;;;2.65;;
32214;SDS011;18708;53.124;23.190;2023-03-04T16:07:31;8.38;;;3.78;;
32214;SDS011;18708;53.124;23.190;2023-03-04T16:09:58;7.97;;;3.45;;
32214;SDS011;18708;53.124;23.190;2023-03-04T16:12:29;10.18;;;4.03;;
32214;SDS011;18708;53.124;23.190;2023-03-04T16:14:55;10.02;;;3.85;;
32214;SDS011;18708;53.124;23.190;2023-03-04T16:17:21;9.65;;;3.50;;
32214;SDS011;18708;53.124;23.190;2023-03-04T16:19:47;7.45;;;3.42;;
32214;SDS011;18708;53.124;23.190;2023-03-04T16:22:20;14.65;;;5.82;;
32214;SDS011;18708;53.124;23.190;2023-03-04T16:24:49;97.95;;;38.72;;
32214;SDS011;18708;53.124;23.190;2023-03-04T16:27:16;44.70;;;19.98;;
32214;SDS011;18708;53.124;23.190;2023-03-04T16:29:43;12.38;;;7.22;;
32214;SDS011;18708;53.124;23.190;2023-03-04T16:32:09;15.45;;;7.95;;
32214;SDS011;18708;53.124;23.190;2023-03-04T16:34:35;11.18;;;5.07;;
32214;SDS011;18708;53.124;23.190;2023-03-04T16:37:02;17.10;;;8.95;;
32214;SDS011;18708;53.124;23.190;2023-03-04T16:39:35;26.13;;;11.23;;
32214;SDS011;18708;53.124;23.190;2023-03-04T16:42:02;6.47;;;4.40;;
32214;SDS011;18708;53.124;23.190;2023-03-04T16:44:28;7.32;;;4.53;;